createdAt,value
2023-04-05T00:01:08.612Z,1.30
2023-04-05T00:03:38.072Z,1.20
2023-04-05T00:06:07.809Z,1.30
2023-04-05T00:08:36.009Z,1.20
2023-04-05T00:11:03.911Z,1.10
2023-04-05T00:13:31.839Z,1.20
2023-04-05T00:16:01.206Z,1.00
2023-04-05T00:18:34.022Z,1.10
2023-04-05T00:21:03.323Z,1.00
2023-04-05T00:23:37.460Z,0.90
2023-04-05T00:26:05.501Z,1.00
2023-04-05T00:28:33.507Z,0.90
2023-04-05T00:31:01.459Z,0.80
2023-04-05T00:33:29.378Z,0.80
2023-04-05T00:35:57.381Z,0.90
2023-04-05T00:38:26.900Z,0.70
2023-04-05T00:40:54.740Z,0.80
2023-04-05T00:43:22.933Z,0.80
2023-04-05T00:45:51.063Z,0.70
2023-04-05T00:48:19.181Z,0.80
2023-04-05T00:50:50.005Z,0.70
2023-04-05T00:53:19.445Z,0.70
2023-04-05T00:55:50.745Z,0.40
2023-04-05T00:58:21.556Z,0.50
2023-04-05T01:01:01.532Z,0.50
2023-04-05T01:03:32.836Z,0.60
2023-04-05T01:06:11.363Z,0.30
2023-04-05T01:08:46.971Z,0.40
2023-04-05T01:11:18.869Z,0.40
2023-04-05T01:13:47.362Z,0.40
2023-04-05T01:16:15.668Z,0.50
2023-04-05T01:18:46.600Z,0.40
2023-04-05T01:21:39.628Z,0.40
2023-04-05T01:24:21.043Z,0.40
2023-04-05T01:27:03.516Z,0.30
2023-04-05T01:29:49.407Z,0.20
2023-04-05T01:32:36.734Z,0.20
2023-04-05T01:35:12.010Z,0.10
2023-04-05T01:37:41.316Z,0.30
2023-04-05T01:40:10.792Z,0.20
2023-04-05T01:42:38.701Z,0.10
2023-04-05T01:45:09.058Z,0.10
2023-04-05T01:47:37.049Z,0.10
2023-04-05T01:50:05.390Z,0.10
2023-04-05T01:52:33.375Z,0.10
2023-04-05T01:55:01.293Z,0.00
2023-04-05T01:57:29.159Z,0.10
2023-04-05T01:59:57.199Z,-3276.60
2023-04-05T02:02:26.622Z,-3276.70
2023-04-05T02:04:54.648Z,-3276.60
2023-04-05T02:07:22.606Z,-3276.60
2023-04-05T02:09:50.478Z,-3276.60
2023-04-05T02:12:18.355Z,0.00
2023-04-05T02:14:46.511Z,-3276.70
2023-04-05T02:17:14.505Z,-3276.60
2023-04-05T02:19:46.380Z,-3276.60
2023-04-05T02:22:15.003Z,-3276.50
2023-04-05T02:24:42.975Z,-3276.70
2023-04-05T02:27:11.013Z,-3276.60
2023-04-05T02:29:39.278Z,-3276.40
2023-04-05T02:32:07.507Z,-3276.50
2023-04-05T02:34:36.935Z,-3276.50
2023-04-05T02:37:06.423Z,-3276.60
2023-04-05T02:39:34.552Z,-3276.60
2023-04-05T02:42:02.580Z,-3276.50
2023-04-05T02:44:31.249Z,-3276.30
2023-04-05T02:46:59.097Z,-3276.30
2023-04-05T02:49:27.012Z,-3276.30
2023-04-05T02:51:55.800Z,-3276.50
2023-04-05T02:54:25.309Z,-3276.30
2023-04-05T02:56:54.670Z,-3276.30
2023-04-05T02:59:22.994Z,-3276.20
2023-04-05T03:01:50.929Z,-3276.40
2023-04-05T03:04:18.912Z,-3276.30
2023-04-05T03:06:48.805Z,-3276.30
2023-04-05T03:09:16.746Z,-3276.20
2023-04-05T03:11:46.135Z,-3276.40
2023-04-05T03:14:14.071Z,-3276.40
2023-04-05T03:16:41.999Z,-3276.10
2023-04-05T03:19:10.024Z,-3276.10
2023-04-05T03:21:39.820Z,-3276.20
2023-04-05T03:24:08.509Z,-3276.20
2023-04-05T03:26:36.447Z,-3276.20
2023-04-05T03:29:06.431Z,-3276.20
2023-04-05T03:31:34.507Z,-3276.30
2023-04-05T03:34:02.439Z,-3275.90
2023-04-05T03:36:30.682Z,-3276.00
2023-04-05T03:38:58.832Z,-3275.90
2023-04-05T03:41:27.033Z,-3275.80
2023-04-05T03:43:54.968Z,-3275.90
2023-04-05T03:46:24.378Z,-3275.90
2023-04-05T03:48:52.799Z,-3275.80
2023-04-05T03:51:20.866Z,-3275.90
2023-04-05T03:53:48.688Z,-3275.90
2023-04-05T03:56:16.634Z,-3275.90
2023-04-05T03:58:44.919Z,-3275.80
2023-04-05T04:01:13.005Z,-3275.90
2023-04-05T04:03:42.457Z,-3275.80
2023-04-05T04:06:10.664Z,-3275.90
2023-04-05T04:08:39.335Z,-3275.90
2023-04-05T04:11:07.439Z,-3275.90
2023-04-05T04:13:35.808Z,-3275.80
2023-04-05T04:16:03.783Z,-3275.90
2023-04-05T04:18:31.739Z,-3275.70
2023-04-05T04:21:06.585Z,-3275.80
2023-04-05T04:23:34.631Z,-3275.80
2023-04-05T04:26:03.059Z,-3275.70
2023-04-05T04:28:34.585Z,-3275.70
2023-04-05T04:31:04.855Z,-3275.80
2023-04-05T04:33:34.498Z,-3275.70
2023-04-05T04:36:09.363Z,-3275.60
2023-04-05T04:38:37.329Z,-3275.70
2023-04-05T04:41:08.029Z,-3275.70
2023-04-05T04:43:42.764Z,-3275.50
2023-04-05T04:46:14.750Z,-3275.70
2023-04-05T04:48:43.447Z,-3275.60
2023-04-05T04:51:12.708Z,-3275.70
2023-04-05T04:53:40.555Z,-3275.60
2023-04-05T04:56:08.777Z,-3275.50
2023-04-05T04:58:36.828Z,-3275.60
2023-04-05T05:01:09.869Z,-3275.60
2023-04-05T05:03:38.620Z,-3275.50
2023-04-05T05:06:07.459Z,-3275.50
2023-04-05T05:08:37.263Z,-3275.50
2023-04-05T05:11:08.495Z,-3275.60
2023-04-05T05:13:36.486Z,-3275.50
2023-04-05T05:16:05.645Z,-3275.50
2023-04-05T05:18:33.550Z,-3275.50
2023-04-05T05:21:01.686Z,-3275.50
2023-04-05T05:23:29.572Z,-3275.60
2023-04-05T05:26:00.796Z,-3275.60
2023-04-05T05:28:28.780Z,-3275.50
2023-04-05T05:30:56.806Z,-3275.50
2023-04-05T05:33:25.336Z,-3275.70
2023-04-05T05:35:53.301Z,-3275.70
2023-04-05T05:38:22.037Z,-3275.70
2023-04-05T05:40:50.351Z,-3275.70
2023-04-05T05:43:20.760Z,-3275.90
2023-04-05T05:45:48.803Z,-3275.70
2023-04-05T05:48:17.235Z,-3275.90
2023-04-05T05:50:48.684Z,-3276.00
2023-04-05T05:53:17.240Z,-3275.90
2023-04-05T05:55:46.573Z,-3276.10
2023-04-05T05:58:14.524Z,-3276.00
2023-04-05T06:00:44.117Z,-3276.20
2023-04-05T06:03:12.103Z,-3276.30
2023-04-05T06:05:40.203Z,-3276.40
2023-04-05T06:08:09.374Z,-3276.30
2023-04-05T06:10:39.064Z,-3276.70
2023-04-05T06:13:07.179Z,-3276.60
2023-04-05T06:15:35.145Z,-3276.60
2023-04-05T06:18:05.027Z,0.00
2023-04-05T06:20:33.037Z,0.00
2023-04-05T06:23:03.669Z,0.20
2023-04-05T06:25:31.617Z,0.30
2023-04-05T06:27:59.716Z,0.40
2023-04-05T06:30:27.559Z,0.50
2023-04-05T06:32:55.672Z,0.60
2023-04-05T06:35:25.666Z,0.70
2023-04-05T06:37:53.994Z,0.80
2023-04-05T06:40:21.945Z,0.70
2023-04-05T06:42:49.912Z,1.20
2023-04-05T06:45:19.070Z,1.20
2023-04-05T06:47:47.044Z,1.30
2023-04-05T06:50:14.920Z,1.40
2023-04-05T06:52:44.398Z,1.50
2023-04-05T06:55:12.458Z,1.70
2023-04-05T06:57:40.401Z,1.70
2023-04-05T07:00:11.687Z,1.90
2023-04-05T07:02:39.666Z,2.10
2023-04-05T07:05:08.792Z,2.30
2023-04-05T07:07:40.441Z,2.20
2023-04-05T07:10:10.876Z,2.40
2023-04-05T07:12:39.050Z,2.30
2023-04-05T07:15:08.299Z,2.70
2023-04-05T07:17:36.468Z,3.00
2023-04-05T07:20:07.427Z,2.80
2023-04-05T07:22:36.201Z,2.90
2023-04-05T07:25:04.178Z,2.90
2023-04-05T07:27:33.444Z,3.20
2023-04-05T07:30:01.424Z,3.20
2023-04-05T07:32:29.383Z,3.30
2023-04-05T07:34:57.600Z,3.20
2023-04-05T07:37:27.230Z,3.40
2023-04-05T07:39:55.287Z,3.50
2023-04-05T07:42:23.278Z,3.70
2023-04-05T07:44:52.575Z,3.70
2023-04-05T07:47:20.477Z,3.50
2023-04-05T07:49:48.345Z,4.00
2023-04-05T07:52:16.306Z,3.90
2023-04-05T07:54:44.630Z,4.00
2023-04-05T07:57:17.632Z,4.10
2023-04-05T07:59:45.919Z,4.20
2023-04-05T08:02:15.484Z,4.20
2023-04-05T08:04:43.465Z,4.40
2023-04-05T08:07:11.626Z,4.60
2023-04-05T08:09:39.593Z,4.40
2023-04-05T08:12:07.919Z,4.60
2023-04-05T08:14:35.867Z,4.70
2023-04-05T08:17:03.735Z,4.90
2023-04-05T08:19:33.038Z,4.80
2023-04-05T08:22:00.890Z,4.80
2023-04-05T08:24:28.889Z,5.10
2023-04-05T08:26:56.774Z,5.00
2023-04-05T08:29:24.905Z,5.10
2023-04-05T08:31:52.905Z,5.40
2023-04-05T08:34:32.724Z,5.40
2023-04-05T08:37:02.067Z,5.40
2023-04-05T08:39:30.035Z,5.50
2023-04-05T08:42:04.795Z,5.70
2023-04-05T08:44:33.015Z,5.60
2023-04-05T08:47:01.476Z,5.70
2023-04-05T08:49:29.458Z,6.00
2023-04-05T08:51:57.506Z,6.10
2023-04-05T08:54:26.873Z,6.20
2023-04-05T08:56:55.798Z,6.50
2023-04-05T08:59:24.700Z,6.30
2023-04-05T09:01:53.505Z,6.30
2023-04-05T09:04:24.176Z,6.30
2023-04-05T09:06:53.193Z,6.50
2023-04-05T09:09:22.319Z,6.60
2023-04-05T09:11:51.670Z,6.70
2023-04-05T09:14:21.327Z,6.80
2023-04-05T09:16:49.242Z,6.70
2023-04-05T09:19:17.206Z,6.90
2023-04-05T09:22:02.385Z,7.00
2023-04-05T09:24:36.885Z,7.00
2023-04-05T09:27:11.009Z,7.10
2023-04-05T09:29:40.668Z,7.40
2023-04-05T09:32:09.810Z,7.30
2023-04-05T09:34:38.790Z,7.20
2023-04-05T09:37:15.315Z,7.30
2023-04-05T09:39:43.969Z,7.30
2023-04-05T09:42:15.453Z,7.30
2023-04-05T09:44:51.101Z,7.30
2023-04-05T09:47:20.138Z,7.20
2023-04-05T09:49:48.131Z,7.40
2023-04-05T09:52:20.617Z,7.50
2023-04-05T09:54:48.591Z,7.50
2023-04-05T09:57:19.192Z,7.80
2023-04-05T09:59:47.841Z,7.90
2023-04-05T10:02:17.099Z,7.80
2023-04-05T10:04:46.664Z,7.90
2023-04-05T10:07:15.757Z,7.90
2023-04-05T10:09:45.563Z,8.10
2023-04-05T10:12:26.471Z,8.10
2023-04-05T10:14:54.464Z,8.20
2023-04-05T10:17:35.361Z,8.20
2023-04-05T10:20:13.401Z,8.50
2023-04-05T10:22:55.732Z,8.50
2023-04-05T10:25:28.968Z,8.50
2023-04-05T10:28:05.264Z,8.40
2023-04-05T10:30:37.991Z,8.40
2023-04-05T10:33:14.706Z,8.50
2023-04-05T10:35:56.654Z,8.80
2023-04-05T10:38:26.733Z,8.80
2023-04-05T10:40:56.795Z,8.70
2023-04-05T10:43:27.689Z,8.60
2023-04-05T10:45:58.552Z,8.80
2023-04-05T10:48:37.907Z,8.90
2023-04-05T10:51:06.401Z,8.80
2023-04-05T10:53:35.439Z,8.80
2023-04-05T10:56:03.532Z,8.70
2023-04-05T10:58:33.783Z,8.70
2023-04-05T11:01:04.267Z,8.80
2023-04-05T11:03:51.743Z,8.80
2023-04-05T11:06:25.186Z,8.80
2023-04-05T11:08:56.673Z,8.90
2023-04-05T11:11:26.968Z,9.00
2023-04-05T11:13:57.240Z,8.90
2023-04-05T11:16:39.458Z,8.70
2023-04-05T11:19:07.451Z,8.90
2023-04-05T11:21:35.367Z,8.90
2023-04-05T11:24:06.901Z,9.00
2023-04-05T11:26:56.536Z,9.10
2023-04-05T11:29:50.780Z,9.30
2023-04-05T11:32:19.013Z,9.20
2023-04-05T11:34:58.856Z,9.00
2023-04-05T11:38:11.329Z,9.10
2023-04-05T11:40:40.902Z,9.30
2023-04-05T11:43:10.641Z,9.30
2023-04-05T11:45:41.828Z,9.30
2023-04-05T11:48:11.125Z,9.40
2023-04-05T11:50:41.647Z,9.50
2023-04-05T11:53:14.194Z,9.50
2023-04-05T11:55:43.917Z,9.60
2023-04-05T11:58:16.069Z,9.50
2023-04-05T12:00:47.033Z,9.50
2023-04-05T12:03:15.924Z,9.40
2023-04-05T12:05:51.411Z,9.60
2023-04-05T12:08:19.956Z,9.60
2023-04-05T12:10:56.010Z,9.70
2023-04-05T12:13:28.563Z,9.80
2023-04-05T12:15:59.220Z,9.80
2023-04-05T12:18:27.710Z,10.00
2023-04-05T12:20:55.839Z,10.20
2023-04-05T12:23:24.696Z,10.30
2023-04-05T12:25:55.550Z,10.30
2023-04-05T12:28:23.746Z,10.40
2023-04-05T12:30:52.196Z,10.40
2023-04-05T12:33:30.326Z,10.30
2023-04-05T12:35:58.648Z,10.30
2023-04-05T12:38:28.067Z,10.40
2023-04-05T12:41:00.343Z,10.30
2023-04-05T12:43:38.822Z,10.20
2023-04-05T12:46:11.546Z,10.30
2023-04-05T12:48:43.416Z,10.40
2023-04-05T12:51:17.118Z,10.50
2023-04-05T12:53:48.675Z,10.70
2023-04-05T12:56:17.490Z,10.90
2023-04-05T12:58:49.715Z,11.10
2023-04-05T13:01:17.787Z,11.20
2023-04-05T13:03:49.698Z,11.10
2023-04-05T13:06:17.826Z,11.20
2023-04-05T13:08:45.739Z,11.20
2023-04-05T13:11:13.692Z,11.10
2023-04-05T13:13:41.950Z,11.00
2023-04-05T13:16:09.870Z,11.10
2023-04-05T13:18:37.824Z,11.20
2023-04-05T13:21:08.381Z,11.20
2023-04-05T13:23:37.137Z,11.40
2023-04-05T13:26:05.816Z,11.40
2023-04-05T13:28:34.177Z,11.20
2023-04-05T13:31:03.510Z,11.10
2023-04-05T13:33:31.427Z,11.00
2023-04-05T13:35:59.305Z,10.90
2023-04-05T13:38:28.729Z,10.90
2023-04-05T13:40:56.625Z,10.90
2023-04-05T13:43:24.526Z,10.90
2023-04-05T13:45:52.432Z,11.10
2023-04-05T13:48:20.311Z,10.90
2023-04-05T13:50:48.220Z,10.80
2023-04-05T13:53:16.126Z,10.70
2023-04-05T13:55:45.455Z,10.90
2023-04-05T13:58:14.363Z,11.00
2023-04-05T14:00:42.823Z,11.20
2023-04-05T14:03:11.302Z,11.30
2023-04-05T14:05:39.279Z,11.40
2023-04-05T14:08:07.163Z,11.40
2023-04-05T14:10:35.228Z,11.40
2023-04-05T14:13:04.479Z,11.50
2023-04-05T14:15:32.800Z,11.50
2023-04-05T14:18:01.610Z,11.50
2023-04-05T14:20:31.070Z,11.40
2023-04-05T14:23:01.452Z,11.60
2023-04-05T14:25:29.811Z,11.60
2023-04-05T14:27:57.787Z,11.80
2023-04-05T14:30:27.180Z,11.80
2023-04-05T14:32:55.260Z,11.60
2023-04-05T14:35:23.383Z,11.50
2023-04-05T14:37:51.810Z,11.40
2023-04-05T14:40:19.861Z,11.40
2023-04-05T14:42:50.169Z,11.40
2023-04-05T14:45:28.181Z,11.30
2023-04-05T14:47:57.754Z,11.30
2023-04-05T14:50:26.208Z,11.30
2023-04-05T14:52:54.264Z,11.20
2023-04-05T14:55:22.292Z,11.10
2023-04-05T14:57:50.465Z,11.10
2023-04-05T15:00:19.276Z,11.10
2023-04-05T15:02:47.465Z,11.10
2023-04-05T15:05:16.925Z,11.20
2023-04-05T15:07:44.904Z,11.30
2023-04-05T15:10:12.928Z,11.30
2023-04-05T15:12:41.068Z,11.40
2023-04-05T15:15:09.692Z,11.20
2023-04-05T15:17:37.638Z,11.10
2023-04-05T15:20:06.742Z,11.10
2023-04-05T15:22:40.729Z,11.10
2023-04-05T15:25:09.660Z,11.00
2023-04-05T15:27:37.688Z,11.00
2023-04-05T15:30:07.001Z,11.10
2023-04-05T15:32:35.017Z,11.00
2023-04-05T15:35:03.767Z,11.10
2023-04-05T15:37:31.823Z,11.10
2023-04-05T15:40:03.390Z,11.10
2023-04-05T15:42:31.943Z,11.30
2023-04-05T15:44:59.954Z,11.30
2023-04-05T15:47:28.043Z,11.20
2023-04-05T15:49:56.179Z,11.00
2023-04-05T15:52:24.156Z,11.00
2023-04-05T15:54:52.075Z,11.00
2023-04-05T15:57:21.423Z,10.90
2023-04-05T15:59:49.789Z,11.00
2023-04-05T16:02:17.793Z,11.00
2023-04-05T16:04:45.804Z,10.80
2023-04-05T16:07:13.799Z,11.00
2023-04-05T16:09:41.792Z,11.00
2023-04-05T16:12:09.790Z,11.10
2023-04-05T16:14:39.470Z,11.10
2023-04-05T16:17:07.504Z,11.50
2023-04-05T16:19:35.699Z,11.90
2023-04-05T16:22:03.841Z,12.20
2023-04-05T16:24:33.111Z,12.70
2023-04-05T16:27:01.130Z,13.30
2023-04-05T16:29:29.112Z,13.80
2023-04-05T16:31:58.470Z,13.80
2023-04-05T16:34:26.504Z,14.10
2023-04-05T16:36:54.395Z,14.00
2023-04-05T16:39:22.425Z,14.00
2023-04-05T16:41:50.401Z,13.80
2023-04-05T16:44:18.373Z,13.80
2023-04-05T16:46:47.143Z,13.30
2023-04-05T16:49:16.785Z,13.00
2023-04-05T16:51:44.744Z,12.70
2023-04-05T16:54:12.787Z,12.40
2023-04-05T16:56:41.421Z,11.90
2023-04-05T16:59:10.057Z,11.80
2023-04-05T17:01:38.313Z,11.60
2023-04-05T17:04:06.485Z,11.50
2023-04-05T17:06:35.911Z,11.30
2023-04-05T17:09:04.287Z,11.40
2023-04-05T17:11:32.461Z,11.40
2023-04-05T17:14:00.842Z,11.30
2023-04-05T17:16:28.955Z,11.10
2023-04-05T17:18:57.014Z,10.80
2023-04-05T17:21:25.742Z,10.60
2023-04-05T17:23:55.217Z,10.70
2023-04-05T17:26:24.552Z,10.30
2023-04-05T17:28:52.528Z,10.10
2023-04-05T17:31:20.684Z,9.80
2023-04-05T17:33:49.403Z,9.50
2023-04-05T17:36:17.750Z,9.50
2023-04-05T17:38:45.771Z,9.40
2023-04-05T17:41:15.224Z,9.10
2023-04-05T17:43:43.182Z,9.00
2023-04-05T17:46:13.842Z,9.00
2023-04-05T17:48:42.114Z,8.80
2023-04-05T17:51:11.471Z,8.60
2023-04-05T17:53:39.406Z,8.60
2023-04-05T17:56:07.707Z,8.30
2023-04-05T17:58:37.045Z,8.40
2023-04-05T18:01:05.357Z,8.30
2023-04-05T18:03:33.461Z,8.10
2023-04-05T18:06:02.065Z,7.80
2023-04-05T18:08:30.315Z,7.80
2023-04-05T18:10:58.886Z,7.50
2023-04-05T18:13:28.029Z,7.20
2023-04-05T18:15:59.007Z,7.30
2023-04-05T18:18:28.492Z,7.20
2023-04-05T18:21:01.657Z,7.20
2023-04-05T18:23:29.895Z,6.80
2023-04-05T18:25:59.539Z,7.00
2023-04-05T18:28:28.415Z,6.90
2023-04-05T18:30:57.813Z,6.50
2023-04-05T18:33:25.774Z,6.60
2023-04-05T18:35:53.821Z,6.30
2023-04-05T18:38:22.482Z,6.20
2023-04-05T18:40:50.535Z,6.30
2023-04-05T18:43:18.740Z,6.10
2023-04-05T18:45:46.736Z,6.00
2023-04-05T18:48:16.221Z,6.00
2023-04-05T18:50:44.177Z,5.90
2023-04-05T18:53:12.198Z,5.70
2023-04-05T18:55:40.315Z,5.70
2023-04-05T18:58:08.283Z,5.60
2023-04-05T19:00:36.321Z,5.60
2023-04-05T19:03:04.384Z,5.70
2023-04-05T19:05:33.822Z,5.50
2023-04-05T19:08:01.824Z,5.40
2023-04-05T19:10:29.775Z,5.20
2023-04-05T19:12:57.765Z,5.20
2023-04-05T19:15:25.973Z,5.20
2023-04-05T19:17:54.237Z,5.20
2023-04-05T19:20:22.249Z,5.20
2023-04-05T19:22:51.603Z,5.00
2023-04-05T19:25:19.589Z,4.90
2023-04-05T19:27:47.597Z,4.80
2023-04-05T19:30:15.736Z,4.90
2023-04-05T19:32:43.725Z,4.70
2023-04-05T19:35:12.051Z,4.70
2023-04-05T19:37:40.181Z,4.70
2023-04-05T19:40:12.246Z,4.50
2023-04-05T19:42:47.156Z,4.70
2023-04-05T19:45:19.247Z,4.40
2023-04-05T19:47:48.801Z,4.40
2023-04-05T19:50:40.146Z,4.40
2023-04-05T19:53:08.768Z,4.40
2023-04-05T19:55:39.643Z,4.30
2023-04-05T19:58:10.015Z,4.10
2023-04-05T20:00:46.973Z,4.10
2023-04-05T20:03:29.015Z,4.20
2023-04-05T20:06:05.113Z,4.30
2023-04-05T20:08:35.588Z,4.40
2023-04-05T20:11:08.881Z,4.30
2023-04-05T20:13:43.905Z,4.30
2023-04-05T20:16:14.020Z,4.20
2023-04-05T20:18:46.258Z,4.30
2023-04-05T20:21:14.532Z,4.10
2023-04-05T20:23:43.295Z,4.10
2023-04-05T20:26:16.440Z,4.50
2023-04-05T20:28:53.058Z,4.30
2023-04-05T20:31:23.009Z,4.30
2023-04-05T20:33:54.751Z,4.10
2023-04-05T20:36:24.970Z,4.10
2023-04-05T20:38:52.923Z,4.30
2023-04-05T20:41:22.273Z,4.00
2023-04-05T20:43:50.233Z,3.90
2023-04-05T20:46:18.240Z,3.90
2023-04-05T20:48:46.695Z,3.90
2023-04-05T20:51:15.604Z,3.90
2023-04-05T20:53:43.957Z,3.80
2023-04-05T20:56:12.557Z,3.70
2023-04-05T20:58:42.102Z,3.60
2023-04-05T21:01:10.912Z,3.70
2023-04-05T21:03:40.665Z,3.60
2023-04-05T21:06:09.465Z,3.70
2023-04-05T21:08:38.789Z,3.50
2023-04-05T21:11:07.334Z,3.50
2023-04-05T21:13:35.705Z,3.40
2023-04-05T21:16:05.773Z,3.40
2023-04-05T21:18:34.172Z,3.40
2023-04-05T21:21:02.158Z,3.30
2023-04-05T21:23:31.599Z,3.20
2023-04-05T21:26:00.821Z,3.30
2023-04-05T21:28:28.772Z,3.10
2023-04-05T21:30:56.821Z,3.10
2023-04-05T21:33:26.415Z,3.20
2023-04-05T21:35:54.394Z,2.90
2023-04-05T21:38:22.360Z,3.00
2023-04-05T21:40:50.719Z,3.10
2023-04-05T21:43:18.641Z,3.00
2023-04-05T21:45:46.905Z,2.90
2023-04-05T21:48:14.854Z,2.90
2023-04-05T21:50:44.146Z,2.90
2023-04-05T21:53:12.076Z,2.80
2023-04-05T21:55:39.985Z,2.70
2023-04-05T21:58:07.926Z,2.70
2023-04-05T22:00:35.910Z,2.60
2023-04-05T22:03:04.001Z,2.60
2023-04-05T22:05:37.997Z,2.50
2023-04-05T22:08:09.267Z,2.50
2023-04-05T22:10:37.809Z,2.60
2023-04-05T22:13:05.879Z,2.40
2023-04-05T22:15:34.079Z,2.50
2023-04-05T22:18:02.606Z,2.30
2023-04-05T22:20:31.103Z,2.30
2023-04-05T22:22:59.078Z,2.10
2023-04-05T22:25:28.586Z,2.30
2023-04-05T22:28:00.036Z,2.50
2023-04-05T22:30:28.460Z,2.20
2023-04-05T22:32:56.626Z,2.00
2023-04-05T22:35:24.704Z,2.10
2023-04-05T22:37:52.717Z,2.40
2023-04-05T22:40:26.182Z,2.10
2023-04-05T22:42:55.586Z,2.00
2023-04-05T22:45:24.953Z,2.10
2023-04-05T22:47:52.893Z,2.10
2023-04-05T22:50:20.956Z,2.10
2023-04-05T22:52:48.966Z,1.90
2023-04-05T22:55:17.034Z,2.00
2023-04-05T22:57:45.004Z,2.00
2023-04-05T23:00:16.295Z,1.90
2023-04-05T23:02:44.448Z,2.10
2023-04-05T23:05:13.006Z,1.80
2023-04-05T23:07:41.052Z,1.80
2023-04-05T23:10:09.601Z,1.80
2023-04-05T23:12:37.541Z,1.90
2023-04-05T23:15:06.548Z,1.80
2023-04-05T23:17:35.963Z,1.90
2023-04-05T23:20:05.740Z,1.70
2023-04-05T23:22:34.798Z,1.60
2023-04-05T23:25:03.192Z,1.70
2023-04-05T23:27:31.428Z,1.80
2023-04-05T23:29:59.716Z,1.50
2023-04-05T23:32:27.693Z,1.70
2023-04-05T23:34:57.050Z,1.60
2023-04-05T23:37:25.098Z,1.50
2023-04-05T23:39:53.070Z,1.50
2023-04-05T23:42:21.266Z,1.40
2023-04-05T23:44:49.180Z,1.40
2023-04-05T23:47:17.098Z,1.40
2023-04-05T23:49:45.062Z,1.20
2023-04-05T23:52:14.403Z,1.30
2023-04-05T23:54:42.318Z,1.30
2023-04-05T23:57:10.299Z,1.40
2023-04-05T23:59:38.418Z,1.30
